createdAt,value
2019-04-03T00:00:37.675Z,1001.66
2019-04-03T00:01:37.854Z,1001.77
2019-04-03T00:02:37.694Z,1001.76
2019-04-03T00:03:37.659Z,1001.80
2019-04-03T00:04:37.632Z,1001.78
2019-04-03T00:05:37.625Z,1001.76
2019-04-03T00:06:37.760Z,1001.74
2019-04-03T00:07:37.614Z,1001.76
2019-04-03T00:08:37.581Z,1001.74
2019-04-03T00:09:37.609Z,1001.71
2019-04-03T00:10:38.189Z,1001.65
2019-04-03T00:11:39.499Z,1001.69
2019-04-03T00:12:40.450Z,1001.67
2019-04-03T00:13:37.558Z,1001.71
2019-04-03T00:14:37.533Z,1001.75
2019-04-03T00:15:37.540Z,1001.77
2019-04-03T00:16:37.672Z,1001.81
2019-04-03T00:17:37.487Z,1001.72
2019-04-03T00:18:37.494Z,1001.79
2019-04-03T00:19:37.482Z,1001.79
2019-04-03T00:20:37.472Z,1001.85
2019-04-03T00:21:37.653Z,1001.85
2019-04-03T00:22:37.443Z,1001.86
2019-04-03T00:23:37.432Z,1001.86
2019-04-03T00:24:37.418Z,1001.84
2019-04-03T00:25:37.535Z,1001.86
2019-04-03T00:26:37.402Z,1001.85
2019-04-03T00:27:37.423Z,1001.79
2019-04-03T00:28:37.691Z,1001.75
2019-04-03T00:29:37.383Z,1001.76
2019-04-03T00:30:37.350Z,1001.81
2019-04-03T00:31:37.347Z,1001.81
2019-04-03T00:32:37.363Z,1001.86
2019-04-03T00:33:37.337Z,1001.83
2019-04-03T00:34:37.367Z,1001.87
2019-04-03T00:35:37.323Z,1001.84
2019-04-03T00:36:37.303Z,1001.82
2019-04-03T00:37:37.322Z,1001.85
2019-04-03T00:38:37.288Z,1001.76
2019-04-03T00:39:37.425Z,1001.78
2019-04-03T00:40:37.242Z,1001.87
2019-04-03T00:41:37.243Z,1001.90
2019-04-03T00:42:37.306Z,1001.82
2019-04-03T00:43:37.244Z,1001.74
2019-04-03T00:44:37.270Z,1001.74
2019-04-03T00:45:37.222Z,1001.81
2019-04-03T00:46:37.213Z,1001.78
2019-04-03T00:47:37.186Z,1001.79
2019-04-03T00:48:37.193Z,1001.80
2019-04-03T00:49:37.166Z,1001.78
2019-04-03T00:50:37.174Z,1001.77
2019-04-03T00:51:37.175Z,1001.77
2019-04-03T00:52:37.119Z,1001.83
2019-04-03T00:53:37.126Z,1001.89
2019-04-03T00:54:37.124Z,1001.96
2019-04-03T00:55:37.230Z,1001.93
2019-04-03T00:56:37.087Z,1001.81
2019-04-03T00:57:37.085Z,1001.90
2019-04-03T00:58:37.120Z,1002.07
2019-04-03T00:59:37.062Z,1001.96
2019-04-03T01:00:37.093Z,1001.87
2019-04-03T01:01:37.045Z,1001.91
2019-04-03T01:02:37.255Z,1001.91
2019-04-03T01:03:37.030Z,1001.91
2019-04-03T01:04:37.029Z,1001.82
2019-04-03T01:05:37.071Z,1001.96
2019-04-03T01:06:36.989Z,1001.99
2019-04-03T01:07:36.982Z,1001.94
2019-04-03T01:08:36.963Z,1001.85
2019-04-03T01:09:36.995Z,1001.84
2019-04-03T01:10:36.932Z,1001.83
2019-04-03T01:11:36.939Z,1001.86
2019-04-03T01:12:36.963Z,1001.86
2019-04-03T01:13:36.908Z,1001.87
2019-04-03T01:14:36.905Z,1001.82
2019-04-03T01:15:36.879Z,1001.74
2019-04-03T01:16:36.878Z,1001.73
2019-04-03T01:17:36.858Z,1001.81
2019-04-03T01:18:36.876Z,1001.75
2019-04-03T01:19:37.069Z,1001.76
2019-04-03T01:20:36.846Z,1001.75
2019-04-03T01:21:37.503Z,1001.77
2019-04-03T01:22:37.380Z,1001.71
2019-04-03T01:23:38.015Z,1001.71
2019-04-03T01:24:38.752Z,1001.66
2019-04-03T01:25:39.125Z,1001.67
2019-04-03T01:26:36.947Z,1001.64
2019-04-03T01:27:36.748Z,1001.65
2019-04-03T01:28:36.738Z,1001.63
2019-04-03T01:29:36.771Z,1001.60
2019-04-03T01:30:36.807Z,1001.61
2019-04-03T01:31:36.718Z,1001.67
2019-04-03T01:32:36.912Z,1001.53
2019-04-03T01:33:36.703Z,1001.57
2019-04-03T01:34:36.702Z,1001.60
2019-04-03T01:35:36.709Z,1001.58
2019-04-03T01:36:36.680Z,1001.56
2019-04-03T01:37:36.683Z,1001.55
2019-04-03T01:38:36.648Z,1001.62
2019-04-03T01:39:36.663Z,1001.59
2019-04-03T01:40:36.632Z,1001.58
2019-04-03T01:41:36.649Z,1001.52
2019-04-03T01:42:36.618Z,1001.52
2019-04-03T01:43:36.753Z,1001.50
2019-04-03T01:44:36.594Z,1001.50
2019-04-03T01:45:36.597Z,1001.52
2019-04-03T01:46:36.573Z,1001.49
2019-04-03T01:47:36.560Z,1001.46
2019-04-03T01:48:36.540Z,1001.46
2019-04-03T01:49:36.548Z,1001.44
2019-04-03T01:50:36.575Z,1001.41
2019-04-03T01:51:36.538Z,1001.44
2019-04-03T01:52:36.497Z,1001.40
2019-04-03T01:53:36.493Z,1001.35
2019-04-03T01:54:36.469Z,1001.29
2019-04-03T01:55:36.474Z,1001.28
2019-04-03T01:56:36.479Z,1001.26
2019-04-03T01:57:37.098Z,1001.24
2019-04-03T01:58:36.922Z,1001.20
2019-04-03T01:59:37.565Z,1001.21
2019-04-03T02:00:37.635Z,1001.20
2019-04-03T02:01:36.603Z,1001.16
2019-04-03T02:02:36.868Z,1001.17
2019-04-03T02:03:36.377Z,1001.16
2019-04-03T02:04:36.373Z,1001.15
2019-04-03T02:05:36.366Z,1001.19
2019-04-03T02:06:36.388Z,1001.21
2019-04-03T02:07:36.366Z,1001.19
2019-04-03T02:08:36.338Z,1001.15
2019-04-03T02:09:36.335Z,1001.13
2019-04-03T02:10:36.450Z,1001.10
2019-04-03T02:11:36.298Z,1001.06
2019-04-03T02:12:36.322Z,1001.03
2019-04-03T02:13:36.299Z,1000.95
2019-04-03T02:14:36.283Z,1000.97
2019-04-03T02:15:36.253Z,1000.94
2019-04-03T02:16:36.229Z,1000.88
2019-04-03T02:17:36.274Z,1000.90
2019-04-03T02:18:36.246Z,1000.88
2019-04-03T02:19:36.210Z,1000.84
2019-04-03T02:20:36.220Z,1000.86
2019-04-03T02:21:36.188Z,1000.81
2019-04-03T02:22:36.184Z,1000.81
2019-04-03T02:23:36.204Z,1000.82
2019-04-03T02:24:36.186Z,1000.81
2019-04-03T02:25:36.158Z,1000.82
2019-04-03T02:26:36.159Z,1000.85
2019-04-03T02:27:36.126Z,1000.85
2019-04-03T02:28:36.256Z,1000.85
2019-04-03T02:29:36.107Z,1000.84
2019-04-03T02:30:36.200Z,1000.89
2019-04-03T02:31:36.091Z,1000.90
2019-04-03T02:32:36.099Z,1001.03
2019-04-03T02:33:36.154Z,1001.09
2019-04-03T02:34:36.660Z,1001.08
2019-04-03T02:35:38.999Z,1001.04
2019-04-03T02:36:36.082Z,1001.07
2019-04-03T02:37:36.143Z,1001.09
2019-04-03T02:38:36.038Z,1001.09
2019-04-03T02:39:36.042Z,1001.12
2019-04-03T02:40:36.078Z,1001.11
2019-04-03T02:41:37.399Z,1001.07
2019-04-03T02:42:36.093Z,1001.05
2019-04-03T02:43:35.985Z,1001.08
2019-04-03T02:44:35.967Z,1001.10
2019-04-03T02:45:35.958Z,1001.10
2019-04-03T02:46:35.935Z,1001.09
2019-04-03T02:47:35.921Z,1001.06
2019-04-03T02:48:38.262Z,1001.06
2019-04-03T02:49:35.890Z,1001.05
2019-04-03T02:50:35.913Z,1001.00
2019-04-03T02:51:36.050Z,1001.00
2019-04-03T02:52:36.160Z,1000.97
2019-04-03T02:53:35.900Z,1000.95
2019-04-03T02:54:36.252Z,1000.94
2019-04-03T02:55:39.016Z,1000.96
2019-04-03T02:56:36.099Z,1000.94
2019-04-03T02:57:35.873Z,1000.93
2019-04-03T02:58:36.048Z,1000.96
2019-04-03T02:59:35.801Z,1000.95
2019-04-03T03:00:35.819Z,1000.93
2019-04-03T03:01:38.367Z,1000.98
2019-04-03T03:02:35.769Z,1000.97
2019-04-03T03:03:35.896Z,1000.97
2019-04-03T03:04:36.045Z,1000.94
2019-04-03T03:05:35.742Z,1000.98
2019-04-03T03:06:35.781Z,1000.94
2019-04-03T03:07:36.451Z,1000.98
2019-04-03T03:08:35.775Z,1000.95
2019-04-03T03:09:35.690Z,1000.91
2019-04-03T03:10:35.666Z,1000.95
2019-04-03T03:11:35.697Z,1000.92
2019-04-03T03:12:35.656Z,1000.92
2019-04-03T03:13:36.196Z,1000.97
2019-04-03T03:14:38.220Z,1001.01
2019-04-03T03:15:35.692Z,1001.04
2019-04-03T03:16:35.926Z,1001.07
2019-04-03T03:17:35.601Z,1001.09
2019-04-03T03:18:35.587Z,1001.06
2019-04-03T03:19:35.759Z,1001.07
2019-04-03T03:20:39.184Z,1001.03
2019-04-03T03:21:35.569Z,1000.98
2019-04-03T03:22:35.689Z,1000.98
2019-04-03T03:23:35.810Z,1000.98
2019-04-03T03:24:35.527Z,1000.98
2019-04-03T03:25:35.715Z,1000.99
2019-04-03T03:26:37.478Z,1001.00
2019-04-03T03:27:35.717Z,1000.94
2019-04-03T03:28:35.505Z,1000.98
2019-04-03T03:29:35.479Z,1000.95
2019-04-03T03:30:44.282Z,1000.97
2019-04-03T03:32:03.128Z,1000.98
2019-04-03T03:32:37.498Z,1001.03
2019-04-03T03:33:38.910Z,1000.99
2019-04-03T03:34:50.391Z,1000.98
2019-04-03T03:35:41.436Z,1000.99
2019-04-03T03:36:36.974Z,1000.97
2019-04-03T03:37:35.973Z,1001.00
2019-04-03T03:38:38.297Z,1000.99
2019-04-03T03:39:35.372Z,1001.04
2019-04-03T03:40:35.355Z,1001.02
2019-04-03T03:41:35.387Z,1001.06
2019-04-03T03:42:35.323Z,1001.05
2019-04-03T03:43:38.263Z,1001.08
2019-04-03T03:44:35.307Z,1001.03
2019-04-03T03:45:35.297Z,1000.99
2019-04-03T03:46:35.325Z,1001.01
2019-04-03T03:47:36.383Z,1000.96
2019-04-03T03:48:35.289Z,1000.96
2019-04-03T03:49:35.633Z,1000.92
2019-04-03T03:50:35.246Z,1000.90
2019-04-03T03:51:35.275Z,1000.91
2019-04-03T03:52:36.705Z,1000.88
2019-04-03T03:53:35.527Z,1000.87
2019-04-03T03:54:35.231Z,1000.84
2019-04-03T03:55:35.535Z,1000.83
2019-04-03T03:56:35.191Z,1000.81
2019-04-03T03:57:38.004Z,1000.82
2019-04-03T03:58:35.166Z,1000.80
2019-04-03T03:59:35.165Z,1000.79
2019-04-03T04:00:35.489Z,1000.79
2019-04-03T04:01:35.125Z,1000.82
2019-04-03T04:02:36.766Z,1000.82
2019-04-03T04:03:35.110Z,1000.79
2019-04-03T04:04:35.105Z,1000.80
2019-04-03T04:05:35.130Z,1000.85
2019-04-03T04:06:36.328Z,1000.87
2019-04-03T04:07:37.403Z,1000.88
2019-04-03T04:08:35.313Z,1000.92
2019-04-03T04:09:35.085Z,1000.89
2019-04-03T04:10:36.490Z,1000.84
2019-04-03T04:11:35.240Z,1000.84
2019-04-03T04:12:39.792Z,1000.84
2019-04-03T04:13:36.038Z,1000.84
2019-04-03T04:14:34.997Z,1000.86
2019-04-03T04:15:35.003Z,1000.84
2019-04-03T04:16:37.073Z,1000.86
2019-04-03T04:17:34.996Z,1000.86
2019-04-03T04:18:34.954Z,1000.81
2019-04-03T04:19:34.955Z,1000.81
2019-04-03T04:20:38.180Z,1000.80
2019-04-03T04:21:35.253Z,1000.80
2019-04-03T04:22:34.980Z,1000.77
2019-04-03T04:23:35.127Z,1000.74
2019-04-03T04:24:34.889Z,1000.77
2019-04-03T04:25:34.921Z,1000.82
2019-04-03T04:26:35.044Z,1000.81
2019-04-03T04:27:37.786Z,1000.84
2019-04-03T04:28:34.847Z,1000.89
2019-04-03T04:29:34.866Z,1000.91
2019-04-03T04:30:34.819Z,1000.92
2019-04-03T04:31:35.044Z,1000.93
2019-04-03T04:32:34.815Z,1000.91
2019-04-03T04:33:34.796Z,1000.88
2019-04-03T04:34:34.842Z,1000.89
2019-04-03T04:35:34.798Z,1000.87
2019-04-03T04:36:34.800Z,1000.91
2019-04-03T04:37:34.775Z,1000.84
2019-04-03T04:38:44.296Z,1000.82
2019-04-03T04:39:34.719Z,1000.81
2019-04-03T04:40:34.996Z,1000.78
2019-04-03T04:41:34.720Z,1000.77
2019-04-03T04:42:35.351Z,1000.78
2019-04-03T04:43:34.699Z,1000.81
2019-04-03T04:44:34.852Z,1000.84
2019-04-03T04:45:34.644Z,1000.85
2019-04-03T04:46:34.867Z,1000.85
2019-04-03T04:47:34.729Z,1000.80
2019-04-03T04:48:35.334Z,1000.80
2019-04-03T04:49:34.614Z,1000.80
2019-04-03T04:50:34.599Z,1000.73
2019-04-03T04:51:34.732Z,1000.76
2019-04-03T04:52:34.597Z,1000.75
2019-04-03T04:53:34.595Z,1000.71
2019-04-03T04:54:34.561Z,1000.73
2019-04-03T04:55:35.665Z,1000.73
2019-04-03T04:56:35.779Z,1000.75
2019-04-03T04:57:34.612Z,1000.78
2019-04-03T04:58:34.551Z,1000.77
2019-04-03T04:59:36.356Z,1000.81
2019-04-03T05:00:34.494Z,1000.78
2019-04-03T05:01:34.522Z,1000.80
2019-04-03T05:02:34.827Z,1000.76
2019-04-03T05:03:34.465Z,1000.74
2019-04-03T05:04:34.538Z,1000.77
2019-04-03T05:05:34.552Z,1000.74
2019-04-03T05:06:34.458Z,1000.71
2019-04-03T05:07:34.620Z,1000.77
2019-04-03T05:08:34.428Z,1000.77
2019-04-03T05:09:35.427Z,1000.77
2019-04-03T05:10:36.429Z,1000.73
2019-04-03T05:11:34.377Z,1000.73
2019-04-03T05:12:34.370Z,1000.76
2019-04-03T05:13:34.363Z,1000.78
2019-04-03T05:14:34.435Z,1000.79
2019-04-03T05:15:34.352Z,1000.79
2019-04-03T05:16:34.519Z,1000.88
2019-04-03T05:17:34.318Z,1000.84
2019-04-03T05:18:34.314Z,1000.84
2019-04-03T05:19:34.369Z,1000.82
2019-04-03T05:20:34.290Z,1000.82
2019-04-03T05:21:34.269Z,1000.85
2019-04-03T05:22:34.343Z,1000.79
2019-04-03T05:23:34.264Z,1000.81
2019-04-03T05:24:34.240Z,1000.81
2019-04-03T05:25:34.490Z,1000.82
2019-04-03T05:26:34.218Z,1000.79
2019-04-03T05:27:34.794Z,1000.78
2019-04-03T05:28:34.769Z,1000.76
2019-04-03T05:29:34.759Z,1000.73
2019-04-03T05:30:36.652Z,1000.71
2019-04-03T05:31:34.441Z,1000.72
2019-04-03T05:32:34.184Z,1000.68
2019-04-03T05:33:34.335Z,1000.69
2019-04-03T05:34:34.207Z,1000.66
2019-04-03T05:35:34.134Z,1000.67
2019-04-03T05:36:34.114Z,1000.68
2019-04-03T05:37:34.103Z,1000.71
2019-04-03T05:38:34.090Z,1000.71
2019-04-03T05:39:34.112Z,1000.71
2019-04-03T05:40:34.097Z,1000.72
2019-04-03T05:41:34.053Z,1000.70
2019-04-03T05:42:34.221Z,1000.72
2019-04-03T05:43:34.063Z,1000.71
2019-04-03T05:44:34.027Z,1000.68
2019-04-03T05:45:35.368Z,1000.66
2019-04-03T05:46:36.526Z,1000.65
2019-04-03T05:47:34.011Z,1000.69
2019-04-03T05:48:33.991Z,1000.66
2019-04-03T05:49:33.983Z,1000.69
2019-04-03T05:50:36.178Z,1000.72
2019-04-03T05:51:33.965Z,1000.72
2019-04-03T05:52:35.099Z,1000.72
2019-04-03T05:53:36.688Z,1000.71
2019-04-03T05:54:33.931Z,1000.70
2019-04-03T05:55:34.245Z,1000.69
2019-04-03T05:56:33.906Z,1000.71
2019-04-03T05:57:33.893Z,1000.72
2019-04-03T05:58:34.180Z,1000.71
2019-04-03T05:59:33.880Z,1000.73
2019-04-03T06:00:33.867Z,1000.71
2019-04-03T06:01:33.846Z,1000.71
2019-04-03T06:02:34.150Z,1000.70
2019-04-03T06:03:42.307Z,1000.74
2019-04-03T06:04:34.803Z,1000.73
2019-04-03T06:05:33.800Z,1000.76
2019-04-03T06:06:33.798Z,1000.76
2019-04-03T06:07:33.813Z,1000.68
2019-04-03T06:08:34.744Z,1000.71
2019-04-03T06:09:33.802Z,1000.75
2019-04-03T06:10:36.560Z,1000.73
2019-04-03T06:11:33.742Z,1000.76
2019-04-03T06:12:36.547Z,1000.72
2019-04-03T06:13:33.745Z,1000.74
2019-04-03T06:14:33.718Z,1000.78
2019-04-03T06:15:33.701Z,1000.73
2019-04-03T06:16:33.702Z,1000.77
2019-04-03T06:17:33.686Z,1000.75
2019-04-03T06:18:33.685Z,1000.76
2019-04-03T06:19:35.212Z,1000.72
2019-04-03T06:20:33.658Z,1000.74
2019-04-03T06:21:33.767Z,1000.66
2019-04-03T06:22:33.633Z,1000.66
2019-04-03T06:23:33.849Z,1000.68
2019-04-03T06:24:33.622Z,1000.63
2019-04-03T06:25:33.744Z,1000.59
2019-04-03T06:26:33.584Z,1000.57
2019-04-03T06:27:33.571Z,1000.58
2019-04-03T06:28:33.618Z,1000.54
2019-04-03T06:29:33.573Z,1000.59
2019-04-03T06:30:33.533Z,1000.62
2019-04-03T06:31:33.542Z,1000.56
2019-04-03T06:32:33.522Z,1000.63
2019-04-03T06:33:35.030Z,1000.64
2019-04-03T06:34:34.329Z,1000.62
2019-04-03T06:35:35.162Z,1000.64
2019-04-03T06:36:33.509Z,1000.65
2019-04-03T06:37:34.406Z,1000.64
2019-04-03T06:38:33.473Z,1000.61
2019-04-03T06:39:33.606Z,1000.68
2019-04-03T06:40:35.150Z,1000.67
2019-04-03T06:41:33.559Z,1000.67
2019-04-03T06:42:33.498Z,1000.61
2019-04-03T06:43:33.700Z,1000.64
2019-04-03T06:44:33.386Z,1000.61
2019-04-03T06:45:33.396Z,1000.57
2019-04-03T06:46:33.367Z,1000.59
2019-04-03T06:47:33.375Z,1000.54
2019-04-03T06:48:34.656Z,1000.55
2019-04-03T06:49:33.347Z,1000.52
2019-04-03T06:50:33.337Z,1000.51
2019-04-03T06:51:33.352Z,1000.43
2019-04-03T06:52:33.309Z,1000.42
2019-04-03T06:53:33.312Z,1000.45
2019-04-03T06:54:33.300Z,1000.42
2019-04-03T06:55:35.602Z,1000.44
2019-04-03T06:56:33.289Z,1000.44
2019-04-03T06:57:33.258Z,1000.47
2019-04-03T06:58:39.367Z,1000.49
2019-04-03T06:59:34.241Z,1000.55
2019-04-03T07:00:33.244Z,1000.56
2019-04-03T07:01:33.221Z,1000.59
2019-04-03T07:02:33.211Z,1000.59
2019-04-03T07:03:34.329Z,1000.65
2019-04-03T07:04:33.405Z,1000.57
2019-04-03T07:05:33.188Z,1000.62
2019-04-03T07:06:33.258Z,1000.60
2019-04-03T07:07:35.451Z,1000.57
2019-04-03T07:08:35.389Z,1000.60
2019-04-03T07:09:36.548Z,1000.59
2019-04-03T07:10:34.548Z,1000.57
2019-04-03T07:11:34.169Z,1000.56
2019-04-03T07:12:33.179Z,1000.54
2019-04-03T07:13:34.285Z,1000.58
2019-04-03T07:14:33.279Z,1000.61
2019-04-03T07:15:33.105Z,1000.60
2019-04-03T07:16:33.063Z,1000.60
2019-04-03T07:17:33.086Z,1000.59
2019-04-03T07:18:33.066Z,1000.64
2019-04-03T07:19:33.224Z,1000.63
2019-04-03T07:20:33.044Z,1000.64
2019-04-03T07:21:33.007Z,1000.63
2019-04-03T07:22:35.854Z,1000.61
2019-04-03T07:23:33.012Z,1000.68
2019-04-03T07:24:32.979Z,1000.68
2019-04-03T07:25:33.962Z,1000.72
2019-04-03T07:26:35.124Z,1000.71
2019-04-03T07:27:32.996Z,1000.71
2019-04-03T07:28:33.137Z,1000.69
2019-04-03T07:29:32.936Z,1000.72
2019-04-03T07:30:33.897Z,1000.65
2019-04-03T07:31:32.913Z,1000.64
2019-04-03T07:32:33.842Z,1000.63
2019-04-03T07:33:32.895Z,1000.60
2019-04-03T07:34:35.860Z,1000.57
2019-04-03T07:35:33.946Z,1000.51
2019-04-03T07:36:32.860Z,1000.50
2019-04-03T07:37:35.065Z,1000.48
2019-04-03T07:38:35.654Z,1000.47
2019-04-03T07:39:33.425Z,1000.52
2019-04-03T07:40:32.834Z,1000.48
2019-04-03T07:41:33.780Z,1000.50
2019-04-03T07:42:32.799Z,1000.54
2019-04-03T07:43:32.852Z,1000.52
2019-04-03T07:44:32.796Z,1000.54
2019-04-03T07:45:33.490Z,1000.61
2019-04-03T07:46:33.222Z,1000.55
2019-04-03T07:47:34.346Z,1000.56
2019-04-03T07:48:33.534Z,1000.57
2019-04-03T07:49:32.732Z,1000.56
2019-04-03T07:50:32.724Z,1000.52
2019-04-03T07:51:32.689Z,1000.58
2019-04-03T07:52:32.693Z,1000.59
2019-04-03T07:53:32.673Z,1000.56
2019-04-03T07:54:32.672Z,1000.57
2019-04-03T07:55:32.655Z,1000.58
2019-04-03T07:56:32.633Z,1000.60
2019-04-03T07:57:32.625Z,1000.59
2019-04-03T07:58:32.704Z,1000.64
2019-04-03T07:59:34.256Z,1000.62
2019-04-03T08:00:32.629Z,1000.62
2019-04-03T08:01:32.592Z,1000.62
2019-04-03T08:02:33.967Z,1000.62
2019-04-03T08:03:32.568Z,1000.62
2019-04-03T08:04:32.571Z,1000.60
2019-04-03T08:05:32.543Z,1000.59
2019-04-03T08:06:34.475Z,1000.57
2019-04-03T08:07:32.697Z,1000.59
2019-04-03T08:08:32.651Z,1000.55
2019-04-03T08:09:32.650Z,1000.59
2019-04-03T08:10:32.504Z,1000.61
2019-04-03T08:11:32.778Z,1000.60
2019-04-03T08:12:34.563Z,1000.53
2019-04-03T08:13:32.488Z,1000.53
2019-04-03T08:14:32.513Z,1000.53
2019-04-03T08:15:32.446Z,1000.50
2019-04-03T08:16:32.421Z,1000.46
2019-04-03T08:17:32.495Z,1000.47
2019-04-03T08:18:32.401Z,1000.48
2019-04-03T08:19:32.392Z,1000.47
2019-04-03T08:20:32.442Z,1000.51
2019-04-03T08:21:32.381Z,1000.46
2019-04-03T08:22:33.352Z,1000.51
2019-04-03T08:23:32.550Z,1000.46
2019-04-03T08:24:32.352Z,1000.45
2019-04-03T08:25:32.342Z,1000.46
2019-04-03T08:26:32.378Z,1000.43
2019-04-03T08:27:32.319Z,1000.51
2019-04-03T08:28:32.307Z,1000.45
2019-04-03T08:29:33.712Z,1000.43
2019-04-03T08:30:32.292Z,1000.41
2019-04-03T08:31:32.262Z,1000.40
2019-04-03T08:32:32.337Z,1000.40
2019-04-03T08:33:33.110Z,1000.42
2019-04-03T08:34:32.259Z,1000.39
2019-04-03T08:35:32.829Z,1000.39
2019-04-03T08:36:32.222Z,1000.37
2019-04-03T08:37:32.776Z,1000.37
2019-04-03T08:38:32.242Z,1000.41
2019-04-03T08:39:32.207Z,1000.36
2019-04-03T08:40:32.234Z,1000.37
2019-04-03T08:41:32.341Z,1000.36
2019-04-03T08:42:32.982Z,1000.34
2019-04-03T08:43:33.094Z,1000.35
2019-04-03T08:44:32.136Z,1000.32
2019-04-03T08:45:32.122Z,1000.37
2019-04-03T08:46:32.128Z,1000.33
2019-04-03T08:47:32.166Z,1000.35
2019-04-03T08:48:32.126Z,1000.31
2019-04-03T08:49:32.077Z,1000.28
2019-04-03T08:50:32.261Z,1000.24
2019-04-03T08:51:33.959Z,1000.27
2019-04-03T08:52:32.084Z,1000.28
2019-04-03T08:53:32.035Z,1000.26
2019-04-03T08:54:32.036Z,1000.24
2019-04-03T08:55:32.009Z,1000.21
2019-04-03T08:56:31.991Z,1000.20
2019-04-03T08:57:31.994Z,1000.20
2019-04-03T08:58:32.022Z,1000.22
2019-04-03T08:59:31.990Z,1000.24
2019-04-03T09:00:32.743Z,1000.16
2019-04-03T09:01:31.945Z,1000.17
2019-04-03T09:02:32.077Z,1000.22
2019-04-03T09:03:31.934Z,1000.21
2019-04-03T09:04:31.930Z,1000.19
2019-04-03T09:05:31.911Z,1000.19
2019-04-03T09:06:31.894Z,1000.13
2019-04-03T09:07:31.888Z,1000.17
2019-04-03T09:08:31.904Z,1000.13
2019-04-03T09:09:34.761Z,1000.15
2019-04-03T09:10:34.778Z,1000.11
2019-04-03T09:11:31.846Z,1000.14
2019-04-03T09:12:31.978Z,1000.08
2019-04-03T09:13:31.813Z,1000.10
2019-04-03T09:14:31.850Z,1000.05
2019-04-03T09:15:31.790Z,1000.09
2019-04-03T09:16:32.212Z,1000.13
2019-04-03T09:17:33.928Z,1000.10
2019-04-03T09:18:31.926Z,1000.12
2019-04-03T09:19:31.774Z,1000.09
2019-04-03T09:20:34.712Z,1000.10
2019-04-03T09:21:31.736Z,1000.12
2019-04-03T09:22:32.057Z,1000.09
2019-04-03T09:23:31.901Z,1000.04
2019-04-03T09:24:31.720Z,1000.07
2019-04-03T09:25:32.490Z,1000.04
2019-04-03T09:26:34.891Z,999.98
2019-04-03T09:27:32.692Z,999.95
2019-04-03T09:28:31.697Z,999.97
2019-04-03T09:29:31.695Z,999.91
2019-04-03T09:30:31.677Z,999.95
2019-04-03T09:31:31.931Z,999.93
2019-04-03T09:32:31.621Z,999.91
2019-04-03T09:33:31.708Z,999.91
2019-04-03T09:34:33.918Z,999.86
2019-04-03T09:35:32.764Z,999.91
2019-04-03T09:36:32.880Z,999.82
2019-04-03T09:37:31.569Z,999.84
2019-04-03T09:38:31.879Z,999.81
2019-04-03T09:39:31.636Z,999.80
2019-04-03T09:40:31.705Z,999.81
2019-04-03T09:41:31.707Z,999.75
2019-04-03T09:42:31.543Z,999.77
2019-04-03T09:43:31.498Z,999.77
2019-04-03T09:44:31.541Z,999.77
2019-04-03T09:45:31.515Z,999.78
2019-04-03T09:46:31.929Z,999.76
2019-04-03T09:47:33.616Z,999.74
2019-04-03T09:48:31.445Z,999.76
2019-04-03T09:49:31.430Z,999.74
2019-04-03T09:50:31.433Z,999.65
2019-04-03T09:51:31.440Z,999.68
2019-04-03T09:52:39.524Z,999.66
2019-04-03T09:53:32.646Z,999.67
2019-04-03T09:54:31.799Z,999.64
2019-04-03T09:55:35.902Z,999.64
2019-04-03T09:56:32.483Z,999.51
2019-04-03T09:57:31.891Z,999.54
2019-04-03T09:58:31.341Z,999.60
2019-04-03T09:59:31.575Z,999.58
2019-04-03T10:00:31.308Z,999.54
2019-04-03T10:01:31.312Z,999.58
2019-04-03T10:02:31.302Z,999.61
2019-04-03T10:03:31.705Z,999.59
2019-04-03T10:04:31.854Z,999.54
2019-04-03T10:05:31.640Z,999.61
2019-04-03T10:06:31.955Z,999.60
2019-04-03T10:07:32.037Z,999.57
2019-04-03T10:08:31.742Z,999.51
2019-04-03T10:09:31.234Z,999.48
2019-04-03T10:10:31.495Z,999.48
2019-04-03T10:11:31.309Z,999.46
2019-04-03T10:12:32.333Z,999.46
2019-04-03T10:13:31.370Z,999.43
2019-04-03T10:14:31.186Z,999.47
2019-04-03T10:15:31.961Z,999.47
2019-04-03T10:16:31.150Z,999.45
2019-04-03T10:17:31.288Z,999.51
2019-04-03T10:18:31.478Z,999.47
2019-04-03T10:19:31.386Z,999.42
2019-04-03T10:20:31.118Z,999.40
2019-04-03T10:21:33.117Z,999.47
2019-04-03T10:22:31.094Z,999.48
2019-04-03T10:23:31.114Z,999.44
2019-04-03T10:24:31.715Z,999.47
2019-04-03T10:25:31.075Z,999.41
2019-04-03T10:26:31.843Z,999.40
2019-04-03T10:27:31.338Z,999.43
2019-04-03T10:28:31.055Z,999.35
2019-04-03T10:29:31.054Z,999.34
2019-04-03T10:30:31.047Z,999.35
2019-04-03T10:31:30.998Z,999.35
2019-04-03T10:32:31.280Z,999.36
2019-04-03T10:33:32.374Z,999.34
2019-04-03T10:34:30.968Z,999.35
2019-04-03T10:35:30.968Z,999.34
2019-04-03T10:36:30.952Z,999.33
2019-04-03T10:37:31.178Z,999.32
2019-04-03T10:38:30.934Z,999.33
2019-04-03T10:39:30.925Z,999.32
2019-04-03T10:40:30.931Z,999.25
2019-04-03T10:41:30.912Z,999.24
2019-04-03T10:42:31.784Z,999.24
2019-04-03T10:43:30.882Z,999.24
2019-04-03T10:44:30.902Z,999.26
2019-04-03T10:45:30.887Z,999.27
2019-04-03T10:46:30.864Z,999.23
2019-04-03T10:47:41.040Z,999.23
2019-04-03T10:48:32.113Z,999.23
2019-04-03T10:49:32.442Z,999.25
2019-04-03T10:50:30.835Z,999.31
2019-04-03T10:51:31.775Z,999.30
2019-04-03T10:52:30.782Z,999.26
2019-04-03T10:53:30.852Z,999.17
2019-04-03T10:54:30.752Z,999.19
2019-04-03T10:55:30.757Z,999.16
2019-04-03T10:56:31.190Z,999.14
2019-04-03T10:57:31.743Z,999.12
2019-04-03T10:58:30.713Z,999.16
2019-04-03T10:59:30.723Z,999.12
2019-04-03T11:00:30.722Z,999.06
2019-04-03T11:01:30.934Z,999.08
2019-04-03T11:02:30.819Z,999.05
2019-04-03T11:03:30.748Z,999.08
2019-04-03T11:04:30.814Z,999.05
2019-04-03T11:05:30.644Z,999.06
2019-04-03T11:06:30.616Z,999.01
2019-04-03T11:07:30.630Z,998.99
2019-04-03T11:08:30.625Z,998.95
2019-04-03T11:09:30.612Z,998.94
2019-04-03T11:10:31.000Z,998.98
2019-04-03T11:11:30.632Z,998.94
2019-04-03T11:12:31.860Z,998.94
2019-04-03T11:13:33.732Z,998.93
2019-04-03T11:14:30.562Z,998.89
2019-04-03T11:15:30.536Z,998.88
2019-04-03T11:16:30.723Z,998.87
2019-04-03T11:17:30.546Z,998.83
2019-04-03T11:18:30.515Z,998.83
2019-04-03T11:19:30.524Z,998.77
2019-04-03T11:20:30.640Z,998.79
2019-04-03T11:21:30.777Z,998.72
2019-04-03T11:22:40.431Z,998.72
2019-04-03T11:23:40.151Z,998.68
2019-04-03T11:24:31.454Z,998.70
2019-04-03T11:25:30.566Z,998.63
2019-04-03T11:26:30.425Z,998.55
2019-04-03T11:27:41.789Z,998.56
2019-04-03T11:28:31.697Z,998.60
2019-04-03T11:29:30.629Z,998.55
2019-04-03T11:30:30.640Z,998.56
2019-04-03T11:31:33.555Z,998.54
2019-04-03T11:32:31.357Z,998.53
2019-04-03T11:33:30.342Z,998.50
2019-04-03T11:34:30.330Z,998.47
2019-04-03T11:35:30.574Z,998.44
2019-04-03T11:36:31.168Z,998.40
2019-04-03T11:37:33.085Z,998.43
2019-04-03T11:38:30.294Z,998.41
2019-04-03T11:39:30.409Z,998.43
2019-04-03T11:40:30.271Z,998.40
2019-04-03T11:41:30.261Z,998.37
2019-04-03T11:42:30.546Z,998.36
2019-04-03T11:43:31.425Z,998.35
2019-04-03T11:44:30.237Z,998.35
2019-04-03T11:45:30.509Z,998.29
2019-04-03T11:46:30.192Z,998.34
2019-04-03T11:47:30.208Z,998.28
2019-04-03T11:48:30.177Z,998.24
2019-04-03T11:49:30.192Z,998.20
2019-04-03T11:50:30.181Z,998.15
2019-04-03T11:51:30.300Z,998.12
2019-04-03T11:52:30.168Z,998.11
2019-04-03T11:53:30.641Z,998.11
2019-04-03T11:54:30.120Z,998.12
2019-04-03T11:55:30.123Z,998.01
2019-04-03T11:56:30.129Z,998.05
2019-04-03T11:57:30.099Z,998.10
2019-04-03T11:58:30.070Z,998.09
2019-04-03T11:59:30.061Z,998.05
2019-04-03T12:00:30.085Z,997.98
2019-04-03T12:01:30.060Z,997.94
2019-04-03T12:02:30.347Z,997.95
2019-04-03T12:03:30.034Z,997.94
2019-04-03T12:04:30.199Z,997.94
2019-04-03T12:05:30.442Z,997.94
2019-04-03T12:06:30.014Z,997.89
2019-04-03T12:07:29.997Z,997.91
2019-04-03T12:08:30.311Z,997.90
2019-04-03T12:09:31.603Z,997.89
2019-04-03T12:10:29.950Z,997.88